sensor_id;sensor_type;location;lat;lon;timestamp;pressure;altitude;pressure_sealevel;temperature;humidity
76590;BME280;65471;55.908;37.880;2023-07-13T00:00:47;98815.19;;;12.37;85.08
76590;BME280;65471;55.908;37.880;2023-07-13T00:03:14;98821.44;;;12.37;85.00
76590;BME280;65471;55.908;37.880;2023-07-13T00:05:42;98825.22;;;12.36;85.20
76590;BME280;65471;55.908;37.880;2023-07-13T00:08:09;98827.41;;;12.34;85.25
76590;BME280;65471;55.908;37.880;2023-07-13T00:10:41;98813.84;;;12.34;85.30
76590;BME280;65471;55.908;37.880;2023-07-13T00:13:09;98813.00;;;12.29;85.32
76590;BME280;65471;55.908;37.880;2023-07-13T00:15:36;98808.66;;;12.28;85.49
76590;BME280;65471;55.908;37.880;2023-07-13T00:18:03;98817.59;;;12.28;85.46
76590;BME280;65471;55.908;37.880;2023-07-13T00:20:30;98813.81;;;12.29;85.36
76590;BME280;65471;55.908;37.880;2023-07-13T00:22:57;98814.88;;;12.28;85.45
76590;BME280;65471;55.908;37.880;2023-07-13T00:25:24;98815.16;;;12.26;85.41
76590;BME280;65471;55.908;37.880;2023-07-13T00:27:55;98812.44;;;12.26;85.46
76590;BME280;65471;55.908;37.880;2023-07-13T00:30:22;98804.84;;;12.23;85.56
76590;BME280;65471;55.908;37.880;2023-07-13T00:32:49;98813.78;;;12.24;85.75
76590;BME280;65471;55.908;37.880;2023-07-13T00:35:34;98806.50;;;12.24;85.44
76590;BME280;65471;55.908;37.880;2023-07-13T00:38:01;98810.28;;;12.23;85.57
76590;BME280;65471;55.908;37.880;2023-07-13T00:40:28;98816.75;;;12.22;85.67
76590;BME280;65471;55.908;37.880;2023-07-13T00:42:57;98815.41;;;12.25;85.53
76590;BME280;65471;55.908;37.880;2023-07-13T00:47:51;98809.47;;;12.23;85.58
76590;BME280;65471;55.908;37.880;2023-07-13T00:50:19;98809.47;;;12.23;85.32
76590;BME280;65471;55.908;37.880;2023-07-13T00:52:51;98807.56;;;12.23;85.40
76590;BME280;65471;55.908;37.880;2023-07-13T00:55:21;98811.06;;;12.24;85.48
76590;BME280;65471;55.908;37.880;2023-07-13T00:57:49;98807.28;;;12.25;85.21
76590;BME280;65471;55.908;37.880;2023-07-13T01:00:16;98804.88;;;12.29;85.28
76590;BME280;65471;55.908;37.880;2023-07-13T01:02:45;98804.06;;;12.33;85.05
76590;BME280;65471;55.908;37.880;2023-07-13T01:05:16;98798.91;;;12.37;84.55
76590;BME280;65471;55.908;37.880;2023-07-13T01:07:44;98799.75;;;12.37;84.68
76590;BME280;65471;55.908;37.880;2023-07-13T01:10:12;98801.63;;;12.37;84.75
76590;BME280;65471;55.908;37.880;2023-07-13T01:12:39;98803.53;;;12.36;84.67
76590;BME280;65471;55.908;37.880;2023-07-13T01:15:36;98799.75;;;12.42;84.44
76590;BME280;65471;55.908;37.880;2023-07-13T01:18:11;98801.91;;;12.40;84.41
76590;BME280;65471;55.908;37.880;2023-07-13T01:20:39;98793.78;;;12.40;84.49
76590;BME280;65471;55.908;37.880;2023-07-13T01:23:09;98790.00;;;12.47;84.35
76590;BME280;65471;55.908;37.880;2023-07-13T01:25:37;98796.25;;;12.52;84.07
76590;BME280;65471;55.908;37.880;2023-07-13T01:28:05;98804.09;;;12.54;84.08
76590;BME280;65471;55.908;37.880;2023-07-13T01:30:33;98804.66;;;12.56;84.11
76590;BME280;65471;55.908;37.880;2023-07-13T01:33:00;98789.47;;;12.55;83.99
76590;BME280;65471;55.908;37.880;2023-07-13T01:35:27;98790.03;;;12.57;83.93
76590;BME280;65471;55.908;37.880;2023-07-13T01:37:54;98792.19;;;12.60;83.77
76590;BME280;65471;55.908;37.880;2023-07-13T01:40:21;98790.28;;;12.60;84.32
76590;BME280;65471;55.908;37.880;2023-07-13T01:42:48;98788.38;;;12.61;83.78
76590;BME280;65471;55.908;37.880;2023-07-13T01:45:15;98787.88;;;12.64;83.51
76590;BME280;65471;55.908;37.880;2023-07-13T01:47:42;98785.41;;;12.68;83.42
76590;BME280;65471;55.908;37.880;2023-07-13T01:50:09;98792.19;;;12.70;83.34
76590;BME280;65471;55.908;37.880;2023-07-13T01:52:37;98790.28;;;12.71;83.20
76590;BME280;65471;55.908;37.880;2023-07-13T01:55:04;98783.78;;;12.72;83.52
76590;BME280;65471;55.908;37.880;2023-07-13T01:57:31;98788.41;;;12.71;83.49
76590;BME280;65471;55.908;37.880;2023-07-13T01:59:58;98787.03;;;12.74;83.57
76590;BME280;65471;55.908;37.880;2023-07-13T02:02:25;98787.88;;;12.74;83.41
76590;BME280;65471;55.908;37.880;2023-07-13T02:04:52;98786.25;;;12.78;83.47
76590;BME280;65471;55.908;37.880;2023-07-13T02:07:19;98775.94;;;12.81;83.45
76590;BME280;65471;55.908;37.880;2023-07-13T02:09:46;98776.72;;;12.81;83.35
76590;BME280;65471;55.908;37.880;2023-07-13T02:12:13;98772.41;;;12.80;83.11
76590;BME280;65471;55.908;37.880;2023-07-13T02:14:59;98769.41;;;12.76;83.29
76590;BME280;65471;55.908;37.880;2023-07-13T02:17:45;98759.38;;;12.72;83.41
76590;BME280;65471;55.908;37.880;2023-07-13T02:20:31;98772.66;;;12.73;83.57
76590;BME280;65471;55.908;37.880;2023-07-13T02:23:16;98769.69;;;12.75;83.74
76590;BME280;65471;55.908;37.880;2023-07-13T02:26:04;98767.81;;;12.75;83.62
76590;BME280;65471;55.908;37.880;2023-07-13T02:28:51;98766.97;;;12.75;83.56
76590;BME280;65471;55.908;37.880;2023-07-13T02:31:37;98771.03;;;12.77;83.80
76590;BME280;65471;55.908;37.880;2023-07-13T02:34:23;98768.88;;;12.80;83.79
76590;BME280;65471;55.908;37.880;2023-07-13T02:37:08;98762.38;;;12.81;83.76
76590;BME280;65471;55.908;37.880;2023-07-13T02:39:35;98762.09;;;12.82;83.78
76590;BME280;65471;55.908;37.880;2023-07-13T02:42:02;98777.00;;;12.85;83.57
76590;BME280;65471;55.908;37.880;2023-07-13T02:44:30;98781.09;;;12.87;83.59
76590;BME280;65471;55.908;37.880;2023-07-13T02:46:57;98774.31;;;12.90;83.62
76590;BME280;65471;55.908;37.880;2023-07-13T02:49:24;98763.19;;;12.91;83.36
76590;BME280;65471;55.908;37.880;2023-07-13T02:51:51;98762.09;;;12.92;83.75
76590;BME280;65471;55.908;37.880;2023-07-13T02:54:18;98763.19;;;12.91;83.80
76590;BME280;65471;55.908;37.880;2023-07-13T02:56:45;98761.00;;;12.93;83.83
76590;BME280;65471;55.908;37.880;2023-07-13T02:59:12;98754.22;;;12.91;83.96
76590;BME280;65471;55.908;37.880;2023-07-13T03:01:40;98748.53;;;12.87;83.81
76590;BME280;65471;55.908;37.880;2023-07-13T03:04:09;98752.59;;;12.85;84.02
76590;BME280;65471;55.908;37.880;2023-07-13T03:06:37;98743.09;;;12.82;84.00
76590;BME280;65471;55.908;37.880;2023-07-13T03:09:04;98756.94;;;12.86;83.99
76590;BME280;65471;55.908;37.880;2023-07-13T03:11:31;98757.75;;;12.86;83.87
76590;BME280;65471;55.908;37.880;2023-07-13T03:13:58;98750.16;;;12.88;83.78
76590;BME280;65471;55.908;37.880;2023-07-13T03:16:25;98748.25;;;12.89;83.62
76590;BME280;65471;55.908;37.880;2023-07-13T03:18:52;98763.19;;;12.91;83.52
76590;BME280;65471;55.908;37.880;2023-07-13T03:21:19;98763.72;;;12.93;83.39
76590;BME280;65471;55.908;37.880;2023-07-13T03:23:47;98760.19;;;12.93;83.63
76590;BME280;65471;55.908;37.880;2023-07-13T03:26:17;98762.91;;;12.93;83.66
76590;BME280;65471;55.908;37.880;2023-07-13T03:28:45;98759.63;;;12.91;83.89
76590;BME280;65471;55.908;37.880;2023-07-13T03:31:16;98764.00;;;12.92;83.79
76590;BME280;65471;55.908;37.880;2023-07-13T03:33:43;98753.69;;;12.89;83.97
76590;BME280;65471;55.908;37.880;2023-07-13T03:36:15;98771.06;;;12.93;83.99
76590;BME280;65471;55.908;37.880;2023-07-13T03:38:57;98766.16;;;12.95;83.97
76590;BME280;65471;55.908;37.880;2023-07-13T03:41:24;98761.56;;;12.95;84.07
76590;BME280;65471;55.908;37.880;2023-07-13T03:43:52;98764.81;;;12.98;83.75
76590;BME280;65471;55.908;37.880;2023-07-13T03:46:19;98760.75;;;13.00;83.97
76590;BME280;65471;55.908;37.880;2023-07-13T03:48:47;98759.09;;;12.99;83.96
76590;BME280;65471;55.908;37.880;2023-07-13T03:51:15;98765.34;;;13.00;83.96
76590;BME280;65471;55.908;37.880;2023-07-13T03:53:44;98769.69;;;13.06;83.72
76590;BME280;65471;55.908;37.880;2023-07-13T03:56:12;98768.34;;;13.08;83.62
76590;BME280;65471;55.908;37.880;2023-07-13T03:58:42;98765.88;;;13.12;83.68
76590;BME280;65471;55.908;37.880;2023-07-13T04:01:11;98768.31;;;13.13;83.61
76590;BME280;65471;55.908;37.880;2023-07-13T04:03:38;98771.56;;;13.10;83.67
76590;BME280;65471;55.908;37.880;2023-07-13T04:06:07;98774.56;;;13.14;83.61
76590;BME280;65471;55.908;37.880;2023-07-13T04:08:36;98765.03;;;13.17;83.66
76590;BME280;65471;55.908;37.880;2023-07-13T04:11:04;98763.97;;;13.18;83.46
76590;BME280;65471;55.908;37.880;2023-07-13T04:13:31;98771.84;;;13.19;83.51
76590;BME280;65471;55.908;37.880;2023-07-13T04:15:58;98768.28;;;13.24;83.28
76590;BME280;65471;55.908;37.880;2023-07-13T04:18:25;98771.00;;;13.24;83.18
76590;BME280;65471;55.908;37.880;2023-07-13T04:20:52;98776.44;;;13.24;83.38
76590;BME280;65471;55.908;37.880;2023-07-13T04:23:19;98775.34;;;13.25;83.59
76590;BME280;65471;55.908;37.880;2023-07-13T04:25:47;98780.50;;;13.26;83.63
76590;BME280;65471;55.908;37.880;2023-07-13T04:28:16;98770.72;;;13.30;83.56
76590;BME280;65471;55.908;37.880;2023-07-13T04:30:44;98775.06;;;13.32;83.42
76590;BME280;65471;55.908;37.880;2023-07-13T04:33:11;98765.84;;;13.33;83.17
76590;BME280;65471;55.908;37.880;2023-07-13T04:35:39;98777.28;;;13.35;83.35
76590;BME280;65471;55.908;37.880;2023-07-13T04:38:05;98784.06;;;13.37;83.41
76590;BME280;65471;55.908;37.880;2023-07-13T04:40:33;98778.59;;;13.42;83.06
76590;BME280;65471;55.908;37.880;2023-07-13T04:43:00;98779.41;;;13.48;82.97
76590;BME280;65471;55.908;37.880;2023-07-13T04:45:27;98779.69;;;13.52;82.77
76590;BME280;65471;55.908;37.880;2023-07-13T04:47:54;98780.47;;;13.52;83.12
76590;BME280;65471;55.908;37.880;2023-07-13T04:50:21;98774.25;;;13.52;83.07
76590;BME280;65471;55.908;37.880;2023-07-13T04:52:50;98782.13;;;13.48;83.36
76590;BME280;65471;55.908;37.880;2023-07-13T04:55:19;98777.25;;;13.45;83.49
76590;BME280;65471;55.908;37.880;2023-07-13T04:57:46;98774.25;;;13.46;83.20
76590;BME280;65471;55.908;37.880;2023-07-13T05:00:14;98779.16;;;13.44;83.40
76590;BME280;65471;55.908;37.880;2023-07-13T05:02:45;98774.53;;;13.45;83.59
76590;BME280;65471;55.908;37.880;2023-07-13T05:05:13;98784.31;;;13.46;83.37
76590;BME280;65471;55.908;37.880;2023-07-13T05:07:40;98774.25;;;13.52;83.61
76590;BME280;65471;55.908;37.880;2023-07-13T05:10:07;98757.41;;;13.55;83.51
76590;BME280;65471;55.908;37.880;2023-07-13T05:12:35;98755.22;;;13.57;83.48
76590;BME280;65471;55.908;37.880;2023-07-13T05:15:02;98758.47;;;13.59;83.70
76590;BME280;65471;55.908;37.880;2023-07-13T05:17:31;98750.84;;;13.61;83.79
76590;BME280;65471;55.908;37.880;2023-07-13T05:19:58;98757.06;;;13.67;83.85
76590;BME280;65471;55.908;37.880;2023-07-13T05:22:25;98754.91;;;13.69;83.55
76590;BME280;65471;55.908;37.880;2023-07-13T05:24:52;98755.19;;;13.67;83.85
76590;BME280;65471;55.908;37.880;2023-07-13T05:27:19;98767.69;;;13.68;83.50
76590;BME280;65471;55.908;37.880;2023-07-13T05:29:46;98765.78;;;13.69;83.60
76590;BME280;65471;55.908;37.880;2023-07-13T05:32:13;98770.66;;;13.72;83.42
76590;BME280;65471;55.908;37.880;2023-07-13T05:34:40;98769.25;;;13.79;83.40
76590;BME280;65471;55.908;37.880;2023-07-13T05:37:07;98769.78;;;13.87;83.22
76590;BME280;65471;55.908;37.880;2023-07-13T05:39:35;98765.97;;;13.93;82.87
76590;BME280;65471;55.908;37.880;2023-07-13T05:42:02;98771.38;;;13.98;82.70
76590;BME280;65471;55.908;37.880;2023-07-13T05:44:29;98764.53;;;14.01;82.59
76590;BME280;65471;55.908;37.880;2023-07-13T05:46:56;98774.59;;;14.05;82.41
76590;BME280;65471;55.908;37.880;2023-07-13T05:49:24;98763.69;;;14.10;82.38
76590;BME280;65471;55.908;37.880;2023-07-13T05:51:50;98760.13;;;14.15;82.33
76590;BME280;65471;55.908;37.880;2023-07-13T05:54:17;98758.47;;;14.19;82.46
76590;BME280;65471;55.908;37.880;2023-07-13T05:56:44;98748.09;;;14.26;82.34
76590;BME280;65471;55.908;37.880;2023-07-13T05:59:12;98744.56;;;14.31;82.21
76590;BME280;65471;55.908;37.880;2023-07-13T06:01:39;98741.75;;;14.41;81.91
76590;BME280;65471;55.908;37.880;2023-07-13T06:04:06;98742.81;;;14.45;81.07
76590;BME280;65471;55.908;37.880;2023-07-13T06:06:33;98734.91;;;14.49;80.82
76590;BME280;65471;55.908;37.880;2023-07-13T06:09:00;98737.34;;;14.50;80.77
76590;BME280;65471;55.908;37.880;2023-07-13T06:11:27;98735.66;;;14.55;80.45
76590;BME280;65471;55.908;37.880;2023-07-13T06:13:56;98739.16;;;14.60;80.15
76590;BME280;65471;55.908;37.880;2023-07-13T06:16:24;98727.19;;;14.61;80.01
76590;BME280;65471;55.908;37.880;2023-07-13T06:18:51;98741.06;;;14.65;79.65
76590;BME280;65471;55.908;37.880;2023-07-13T06:21:20;98742.38;;;14.73;79.31
76590;BME280;65471;55.908;37.880;2023-07-13T06:23:49;98738.47;;;14.84;79.11
76590;BME280;65471;55.908;37.880;2023-07-13T06:26:17;98729.69;;;14.92;78.76
76590;BME280;65471;55.908;37.880;2023-07-13T06:28:44;98732.59;;;15.01;78.67
76590;BME280;65471;55.908;37.880;2023-07-13T06:31:12;98731.44;;;15.07;78.41
76590;BME280;65471;55.908;37.880;2023-07-13T06:33:40;98735.50;;;15.10;77.74
76590;BME280;65471;55.908;37.880;2023-07-13T06:36:08;98732.75;;;15.15;77.44
76590;BME280;65471;55.908;37.880;2023-07-13T06:38:36;98742.81;;;15.14;77.11
76590;BME280;65471;55.908;37.880;2023-07-13T06:41:05;98733.25;;;15.17;76.81
76590;BME280;65471;55.908;37.880;2023-07-13T06:43:32;98737.63;;;15.18;76.52
76590;BME280;65471;55.908;37.880;2023-07-13T06:45:59;98739.69;;;15.26;76.03
76590;BME280;65471;55.908;37.880;2023-07-13T06:48:26;98733.13;;;15.32;75.98
76590;BME280;65471;55.908;37.880;2023-07-13T06:50:54;98734.66;;;15.39;76.10
76590;BME280;65471;55.908;37.880;2023-07-13T06:53:22;98737.56;;;15.47;75.72
76590;BME280;65471;55.908;37.880;2023-07-13T06:55:49;98731.78;;;15.54;75.17
76590;BME280;65471;55.908;37.880;2023-07-13T06:58:17;98726.50;;;15.63;74.65
76590;BME280;65471;55.908;37.880;2023-07-13T07:00:45;98731.31;;;15.71;74.06
76590;BME280;65471;55.908;37.880;2023-07-13T07:03:12;98730.44;;;15.76;73.80
76590;BME280;65471;55.908;37.880;2023-07-13T07:05:40;98726.31;;;15.78;73.57
76590;BME280;65471;55.908;37.880;2023-07-13T07:08:07;98727.88;;;15.84;73.19
76590;BME280;65471;55.908;37.880;2023-07-13T07:10:34;98729.97;;;15.93;73.03
76590;BME280;65471;55.908;37.880;2023-07-13T07:13:02;98721.75;;;15.98;73.30
76590;BME280;65471;55.908;37.880;2023-07-13T07:15:30;98724.38;;;16.03;72.31
76590;BME280;65471;55.908;37.880;2023-07-13T07:17:57;98730.06;;;16.07;71.72
76590;BME280;65471;55.908;37.880;2023-07-13T07:20:24;98716.59;;;15.96;72.59
76590;BME280;65471;55.908;37.880;2023-07-13T07:22:51;98727.31;;;15.87;73.34
76590;BME280;65471;55.908;37.880;2023-07-13T07:25:18;98736.94;;;15.80;73.79
76590;BME280;65471;55.908;37.880;2023-07-13T07:27:45;98736.47;;;15.73;74.20
76590;BME280;65471;55.908;37.880;2023-07-13T07:30:15;98730.78;;;15.69;75.06
76590;BME280;65471;55.908;37.880;2023-07-13T07:32:45;98739.03;;;15.64;75.57
76590;BME280;65471;55.908;37.880;2023-07-13T07:35:27;98735.25;;;15.60;75.72
76590;BME280;65471;55.908;37.880;2023-07-13T07:37:56;98743.94;;;15.62;75.08
76590;BME280;65471;55.908;37.880;2023-07-13T07:40:23;98741.78;;;15.59;75.31
76590;BME280;65471;55.908;37.880;2023-07-13T07:42:53;98752.19;;;15.57;75.81
76590;BME280;65471;55.908;37.880;2023-07-13T07:45:21;98739.72;;;15.50;76.14
76590;BME280;65471;55.908;37.880;2023-07-13T07:47:47;98751.78;;;15.44;77.02
76590;BME280;65471;55.908;37.880;2023-07-13T07:50:14;98746.66;;;15.38;77.65
76590;BME280;65471;55.908;37.880;2023-07-13T07:52:41;98748.91;;;15.30;78.09
76590;BME280;65471;55.908;37.880;2023-07-13T07:55:10;98748.97;;;15.25;78.54
76590;BME280;65471;55.908;37.880;2023-07-13T07:57:40;98759.03;;;15.25;78.75
76590;BME280;65471;55.908;37.880;2023-07-13T08:00:10;98761.53;;;15.21;79.07
76590;BME280;65471;55.908;37.880;2023-07-13T08:02:59;98762.50;;;15.06;79.56
76590;BME280;65471;55.908;37.880;2023-07-13T08:06:05;98761.53;;;14.92;80.61
76590;BME280;65471;55.908;37.880;2023-07-13T08:08:53;98767.84;;;14.87;81.41
76590;BME280;65471;55.908;37.880;2023-07-13T08:11:39;98769.50;;;14.83;81.96
76590;BME280;65471;55.908;37.880;2023-07-13T08:14:27;98762.78;;;14.75;82.08
76590;BME280;65471;55.908;37.880;2023-07-13T08:17:33;98743.47;;;14.72;82.87
76590;BME280;65471;55.908;37.880;2023-07-13T08:20:19;98745.13;;;14.67;83.22
76590;BME280;65471;55.908;37.880;2023-07-13T08:23:04;98745.38;;;14.71;83.53
76590;BME280;65471;55.908;37.880;2023-07-13T08:25:52;98747.78;;;14.78;83.79
76590;BME280;65471;55.908;37.880;2023-07-13T08:28:38;98743.63;;;14.86;84.06
76590;BME280;65471;55.908;37.880;2023-07-13T08:31:23;98752.59;;;14.86;84.33
76590;BME280;65471;55.908;37.880;2023-07-13T08:34:08;98755.59;;;14.84;84.38
76590;BME280;65471;55.908;37.880;2023-07-13T08:36:54;98746.09;;;14.82;84.58
76590;BME280;65471;55.908;37.880;2023-07-13T08:39:39;98751.81;;;14.80;84.55
76590;BME280;65471;55.908;37.880;2023-07-13T08:45:22;98757.56;;;14.79;85.01
76590;BME280;65471;55.908;37.880;2023-07-13T08:48:13;98760.56;;;14.77;84.81
76590;BME280;65471;55.908;37.880;2023-07-13T08:53:42;98759.28;;;14.70;85.28
76590;BME280;65471;55.908;37.880;2023-07-13T08:56:21;98760.63;;;14.72;84.95
76590;BME280;65471;55.908;37.880;2023-07-13T08:58:51;98761.41;;;14.73;85.30
76590;BME280;65471;55.908;37.880;2023-07-13T09:04:25;98771.44;;;14.77;86.03
76590;BME280;65471;55.908;37.880;2023-07-13T09:09:55;98770.28;;;14.83;85.95
76590;BME280;65471;55.908;37.880;2023-07-13T09:12:45;98765.13;;;14.87;86.07
76590;BME280;65471;55.908;37.880;2023-07-13T09:15:27;98769.75;;;14.87;86.16
76590;BME280;65471;55.908;37.880;2023-07-13T09:18:03;98775.72;;;14.89;86.38
76590;BME280;65471;55.908;37.880;2023-07-13T09:20:37;98775.72;;;14.89;86.35
76590;BME280;65471;55.908;37.880;2023-07-13T09:23:12;98780.34;;;14.88;86.50
76590;BME280;65471;55.908;37.880;2023-07-13T09:25:42;98780.63;;;14.87;86.00
76590;BME280;65471;55.908;37.880;2023-07-13T09:28:18;98785.53;;;14.84;85.57
76590;BME280;65471;55.908;37.880;2023-07-13T09:30:49;98779.88;;;14.81;85.58
76590;BME280;65471;55.908;37.880;2023-07-13T09:33:21;98775.03;;;14.73;85.10
76590;BME280;65471;55.908;37.880;2023-07-13T09:35:49;98772.03;;;14.69;84.18
76590;BME280;65471;55.908;37.880;2023-07-13T09:38:19;98774.78;;;14.69;83.54
76590;BME280;65471;55.908;37.880;2023-07-13T09:44:12;98774.28;;;14.62;82.64
76590;BME280;65471;55.908;37.880;2023-07-13T09:46:44;98754.97;;;14.58;82.35
76590;BME280;65471;55.908;37.880;2023-07-13T09:49:12;98748.97;;;14.61;82.30
76590;BME280;65471;55.908;37.880;2023-07-13T09:51:43;98754.16;;;14.63;81.93
76590;BME280;65471;55.908;37.880;2023-07-13T09:54:19;98756.88;;;14.63;81.66
76590;BME280;65471;55.908;37.880;2023-07-13T09:56:47;98757.94;;;14.62;81.39
76590;BME280;65471;55.908;37.880;2023-07-13T09:59:21;98760.38;;;14.63;81.15
76590;BME280;65471;55.908;37.880;2023-07-13T10:01:50;98752.22;;;14.63;81.55
76590;BME280;65471;55.908;37.880;2023-07-13T10:04:19;98753.84;;;14.64;81.54
76590;BME280;65471;55.908;37.880;2023-07-13T10:06:46;98757.44;;;14.55;81.22
76590;BME280;65471;55.908;37.880;2023-07-13T10:09:17;98756.91;;;14.53;81.46
76590;BME280;65471;55.908;37.880;2023-07-13T10:11:46;98759.91;;;14.51;81.42
76590;BME280;65471;55.908;37.880;2023-07-13T10:14:17;98755.06;;;14.48;82.11
76590;BME280;65471;55.908;37.880;2023-07-13T10:16:49;98758.66;;;14.38;83.04
76590;BME280;65471;55.908;37.880;2023-07-13T10:19:24;98763.59;;;14.31;83.35
76590;BME280;65471;55.908;37.880;2023-07-13T10:21:56;98752.22;;;14.24;83.35
76590;BME280;65471;55.908;37.880;2023-07-13T10:24:31;98755.72;;;14.24;83.42
76590;BME280;65471;55.908;37.880;2023-07-13T10:27:15;98754.66;;;14.20;84.48
76590;BME280;65471;55.908;37.880;2023-07-13T10:29:49;98754.97;;;14.13;85.02
76590;BME280;65471;55.908;37.880;2023-07-13T10:32:19;98749.81;;;14.12;85.58
76590;BME280;65471;55.908;37.880;2023-07-13T10:34:49;98765.88;;;14.08;86.02
76590;BME280;65471;55.908;37.880;2023-07-13T10:37:22;98762.63;;;14.06;86.24
76590;BME280;65471;55.908;37.880;2023-07-13T10:39:53;98753.09;;;14.04;86.60
76590;BME280;65471;55.908;37.880;2023-07-13T10:42:35;98749.84;;;14.07;86.97
76590;BME280;65471;55.908;37.880;2023-07-13T10:45:18;98758.28;;;14.05;87.31
76590;BME280;65471;55.908;37.880;2023-07-13T10:47:48;98748.50;;;14.04;87.50
76590;BME280;65471;55.908;37.880;2023-07-13T10:50:27;98753.09;;;14.04;87.74
76590;BME280;65471;55.908;37.880;2023-07-13T10:53:03;98757.75;;;14.03;88.01
76590;BME280;65471;55.908;37.880;2023-07-13T10:58:28;98762.13;;;13.99;88.33
76590;BME280;65471;55.908;37.880;2023-07-13T11:04:00;98764.88;;;13.94;88.86
76590;BME280;65471;55.908;37.880;2023-07-13T11:06:36;98781.47;;;13.92;88.87
76590;BME280;65471;55.908;37.880;2023-07-13T11:09:31;98781.97;;;13.94;88.86
76590;BME280;65471;55.908;37.880;2023-07-13T11:12:01;98786.88;;;13.92;88.91
76590;BME280;65471;55.908;37.880;2023-07-13T11:16:58;98775.75;;;13.84;89.07
76590;BME280;65471;55.908;37.880;2023-07-13T11:19:28;98789.09;;;13.80;89.13
76590;BME280;65471;55.908;37.880;2023-07-13T11:24:57;98781.28;;;13.68;89.23
76590;BME280;65471;55.908;37.880;2023-07-13T11:27:49;98787.22;;;13.65;89.07
76590;BME280;65471;55.908;37.880;2023-07-13T11:35:59;98788.09;;;13.50;88.82
76590;BME280;65471;55.908;37.880;2023-07-13T11:38:33;98796.53;;;13.43;89.12
76590;BME280;65471;55.908;37.880;2023-07-13T11:41:10;98790.56;;;13.41;88.91
76590;BME280;65471;55.908;37.880;2023-07-13T11:43:40;98799.00;;;13.40;89.21
76590;BME280;65471;55.908;37.880;2023-07-13T11:46:33;98797.34;;;13.39;89.15
76590;BME280;65471;55.908;37.880;2023-07-13T11:49:00;98799.78;;;13.35;88.90
76590;BME280;65471;55.908;37.880;2023-07-13T11:51:29;98793.56;;;13.35;88.98
76590;BME280;65471;55.908;37.880;2023-07-13T11:54:03;98805.78;;;13.37;89.04
76590;BME280;65471;55.908;37.880;2023-07-13T11:56:31;98797.91;;;13.36;89.00
76590;BME280;65471;55.908;37.880;2023-07-13T11:59:03;98805.22;;;13.30;89.24
76590;BME280;65471;55.908;37.880;2023-07-13T12:01:32;98806.56;;;13.27;89.30
76590;BME280;65471;55.908;37.880;2023-07-13T12:04:02;98811.19;;;13.27;89.49
76590;BME280;65471;55.908;37.880;2023-07-13T12:06:31;98814.72;;;13.22;89.43
76590;BME280;65471;55.908;37.880;2023-07-13T12:09:00;98795.97;;;13.21;89.64
76590;BME280;65471;55.908;37.880;2023-07-13T12:11:30;98800.84;;;13.24;89.52
76590;BME280;65471;55.908;37.880;2023-07-13T12:14:02;98797.91;;;13.25;89.88
76590;BME280;65471;55.908;37.880;2023-07-13T12:16:31;98810.91;;;13.28;89.92
76590;BME280;65471;55.908;37.880;2023-07-13T12:19:01;98801.16;;;13.33;89.87
76590;BME280;65471;55.908;37.880;2023-07-13T12:21:37;98803.84;;;13.27;90.00
76590;BME280;65471;55.908;37.880;2023-07-13T12:24:14;98801.66;;;13.29;90.28
76590;BME280;65471;55.908;37.880;2023-07-13T12:26:41;98803.03;;;13.32;90.22
76590;BME280;65471;55.908;37.880;2023-07-13T12:29:15;98794.66;;;13.39;90.39
76590;BME280;65471;55.908;37.880;2023-07-13T12:31:46;98792.44;;;13.41;90.10
76590;BME280;65471;55.908;37.880;2023-07-13T12:34:24;98797.38;;;13.44;90.85
76590;BME280;65471;55.908;37.880;2023-07-13T12:39:20;98797.06;;;13.51;90.69
76590;BME280;65471;55.908;37.880;2023-07-13T12:41:49;98789.19;;;13.54;90.58
76590;BME280;65471;55.908;37.880;2023-07-13T12:44:22;98780.75;;;13.56;90.57
76590;BME280;65471;55.908;37.880;2023-07-13T12:46:55;98776.97;;;13.57;90.74
76590;BME280;65471;55.908;37.880;2023-07-13T12:49:26;98780.47;;;13.57;90.90
76590;BME280;65471;55.908;37.880;2023-07-13T12:52:01;98786.16;;;13.61;90.94
76590;BME280;65471;55.908;37.880;2023-07-13T12:54:30;98791.34;;;13.62;90.96
76590;BME280;65471;55.908;37.880;2023-07-13T12:56:58;98791.06;;;13.64;91.03
76590;BME280;65471;55.908;37.880;2023-07-13T12:59:30;98786.16;;;13.66;90.99
76590;BME280;65471;55.908;37.880;2023-07-13T13:02:00;98789.16;;;13.64;91.15
76590;BME280;65471;55.908;37.880;2023-07-13T13:04:27;98787.22;;;13.65;91.31
76590;BME280;65471;55.908;37.880;2023-07-13T13:07:03;98798.09;;;13.65;91.32
76590;BME280;65471;55.908;37.880;2023-07-13T13:09:30;98791.34;;;13.62;91.40
76590;BME280;65471;55.908;37.880;2023-07-13T13:11:58;98792.94;;;13.63;91.39
76590;BME280;65471;55.908;37.880;2023-07-13T13:14:25;98793.22;;;13.67;91.55
76590;BME280;65471;55.908;37.880;2023-07-13T13:16:52;98787.78;;;13.67;91.56
76590;BME280;65471;55.908;37.880;2023-07-13T13:19:24;98785.88;;;13.68;91.64
76590;BME280;65471;55.908;37.880;2023-07-13T13:21:53;98786.16;;;13.66;91.63
76590;BME280;65471;55.908;37.880;2023-07-13T13:24:22;98788.31;;;13.69;91.76
76590;BME280;65471;55.908;37.880;2023-07-13T13:26:51;98791.59;;;13.71;91.80
76590;BME280;65471;55.908;37.880;2023-07-13T13:29:21;98775.28;;;13.71;91.84
76590;BME280;65471;55.908;37.880;2023-07-13T13:31:52;98776.09;;;13.72;92.04
76590;BME280;65471;55.908;37.880;2023-07-13T13:34:22;98780.44;;;13.73;91.99
76590;BME280;65471;55.908;37.880;2023-07-13T13:36:54;98779.59;;;13.72;92.01
76590;BME280;65471;55.908;37.880;2023-07-13T13:39:36;98775.81;;;13.73;92.19
76590;BME280;65471;55.908;37.880;2023-07-13T13:42:09;98776.88;;;13.72;92.26
76590;BME280;65471;55.908;37.880;2023-07-13T13:44:36;98777.72;;;13.73;92.21
76590;BME280;65471;55.908;37.880;2023-07-13T13:47:03;98773.66;;;13.70;92.26